sensor_id;sensor_type;location;lat;lon;timestamp;pressure;altitude;pressure_sealevel;temperature;humidity
13041;BME280;6587;42.728;23.288;2024-01-25T00:00:00;95944.34;;;3.07;67.86
13041;BME280;6587;42.728;23.288;2024-01-25T00:02:27;95939.78;;;2.96;68.00
13041;BME280;6587;42.728;23.288;2024-01-25T00:04:54;95931.91;;;2.87;67.40
13041;BME280;6587;42.728;23.288;2024-01-25T00:07:22;95916.22;;;2.99;67.02
13041;BME280;6587;42.728;23.288;2024-01-25T00:09:49;95903.09;;;2.70;67.79
13041;BME280;6587;42.728;23.288;2024-01-25T00:12:16;95891.00;;;2.69;68.22
13041;BME280;6587;42.728;23.288;2024-01-25T00:14:43;95866.94;;;2.59;69.13
13041;BME280;6587;42.728;23.288;2024-01-25T00:17:10;95856.41;;;2.30;70.05
13041;BME280;6587;42.728;23.288;2024-01-25T00:19:36;95841.13;;;2.32;69.63
13041;BME280;6587;42.728;23.288;2024-01-25T00:22:03;95840.44;;;2.43;69.44
13041;BME280;6587;42.728;23.288;2024-01-25T00:24:32;95846.78;;;2.42;68.73
13041;BME280;6587;42.728;23.288;2024-01-25T00:26:59;95852.59;;;2.56;67.81
13041;BME280;6587;42.728;23.288;2024-01-25T00:29:26;95854.16;;;2.86;66.97
13041;BME280;6587;42.728;23.288;2024-01-25T00:31:53;95862.25;;;3.22;66.55
13041;BME280;6587;42.728;23.288;2024-01-25T00:34:20;95865.25;;;3.12;66.68
13041;BME280;6587;42.728;23.288;2024-01-25T00:36:48;95853.63;;;2.93;67.20
13041;BME280;6587;42.728;23.288;2024-01-25T00:39:16;95852.59;;;2.85;67.61
13041;BME280;6587;42.728;23.288;2024-01-25T00:41:46;95849.84;;;3.02;67.59
13041;BME280;6587;42.728;23.288;2024-01-25T00:44:17;95843.75;;;3.10;67.37
13041;BME280;6587;42.728;23.288;2024-01-25T00:46:45;95838.94;;;2.92;66.65
13041;BME280;6587;42.728;23.288;2024-01-25T00:49:14;95831.19;;;2.66;66.97
13041;BME280;6587;42.728;23.288;2024-01-25T00:51:44;95837.31;;;2.50;67.83
13041;BME280;6587;42.728;23.288;2024-01-25T00:54:13;95839.47;;;2.48;67.97
13041;BME280;6587;42.728;23.288;2024-01-25T00:56:41;95853.50;;;2.60;67.97
13041;BME280;6587;42.728;23.288;2024-01-25T00:59:10;95854.22;;;2.69;67.58
13041;BME280;6587;42.728;23.288;2024-01-25T01:01:38;95863.06;;;2.94;67.56
13041;BME280;6587;42.728;23.288;2024-01-25T01:04:06;95864.13;;;2.93;67.50
13041;BME280;6587;42.728;23.288;2024-01-25T01:06:34;95861.00;;;2.99;67.91
13041;BME280;6587;42.728;23.288;2024-01-25T01:09:00;95858.00;;;3.09;67.51
13041;BME280;6587;42.728;23.288;2024-01-25T01:11:27;95839.97;;;2.99;67.15
13041;BME280;6587;42.728;23.288;2024-01-25T01:13:54;95823.03;;;2.88;68.27
13041;BME280;6587;42.728;23.288;2024-01-25T01:16:22;95816.44;;;2.53;69.66
13041;BME280;6587;42.728;23.288;2024-01-25T01:18:49;95795.53;;;2.28;70.54
13041;BME280;6587;42.728;23.288;2024-01-25T01:21:16;95782.63;;;2.14;71.77
13041;BME280;6587;42.728;23.288;2024-01-25T01:23:43;95781.94;;;2.26;71.56
13041;BME280;6587;42.728;23.288;2024-01-25T01:26:11;95777.09;;;2.07;72.53
13041;BME280;6587;42.728;23.288;2024-01-25T01:28:38;95782.19;;;2.12;72.31
13041;BME280;6587;42.728;23.288;2024-01-25T01:31:04;95782.81;;;2.38;71.58
13041;BME280;6587;42.728;23.288;2024-01-25T01:33:33;95785.41;;;2.47;71.35
13041;BME280;6587;42.728;23.288;2024-01-25T01:35:59;95776.75;;;2.46;71.49
13041;BME280;6587;42.728;23.288;2024-01-25T01:38:26;95769.97;;;2.45;71.40
13041;BME280;6587;42.728;23.288;2024-01-25T01:40:53;95769.03;;;2.41;71.64
13041;BME280;6587;42.728;23.288;2024-01-25T01:43:20;95773.47;;;2.49;71.44
13041;BME280;6587;42.728;23.288;2024-01-25T01:45:48;95758.63;;;2.53;71.89
13041;BME280;6587;42.728;23.288;2024-01-25T01:48:16;95758.06;;;2.68;72.61
13041;BME280;6587;42.728;23.288;2024-01-25T01:50:44;95758.78;;;2.77;71.84
13041;BME280;6587;42.728;23.288;2024-01-25T01:53:12;95754.09;;;2.83;71.83
13041;BME280;6587;42.728;23.288;2024-01-25T01:55:39;95758.84;;;2.89;71.12
13041;BME280;6587;42.728;23.288;2024-01-25T01:58:07;95758.59;;;2.82;70.58
13041;BME280;6587;42.728;23.288;2024-01-25T02:00:34;95754.59;;;3.17;69.87
13041;BME280;6587;42.728;23.288;2024-01-25T02:03:01;95742.00;;;3.23;68.87
13041;BME280;6587;42.728;23.288;2024-01-25T02:05:28;95740.63;;;3.26;68.90
13041;BME280;6587;42.728;23.288;2024-01-25T02:07:57;95736.09;;;3.26;67.75
13041;BME280;6587;42.728;23.288;2024-01-25T02:10:24;95733.63;;;3.42;66.75
13041;BME280;6587;42.728;23.288;2024-01-25T02:12:51;95741.53;;;3.42;66.03
13041;BME280;6587;42.728;23.288;2024-01-25T02:15:18;95750.06;;;3.39;67.42
13041;BME280;6587;42.728;23.288;2024-01-25T02:17:45;95756.19;;;3.31;67.15
13041;BME280;6587;42.728;23.288;2024-01-25T02:20:12;95753.53;;;3.31;66.53
13041;BME280;6587;42.728;23.288;2024-01-25T02:22:41;95756.44;;;3.38;66.80
13041;BME280;6587;42.728;23.288;2024-01-25T02:25:08;95751.69;;;3.31;66.48
13041;BME280;6587;42.728;23.288;2024-01-25T02:27:35;95750.59;;;3.32;66.59
13041;BME280;6587;42.728;23.288;2024-01-25T02:30:05;95749.84;;;3.32;67.23
13041;BME280;6587;42.728;23.288;2024-01-25T02:32:32;95742.66;;;3.20;67.38
13041;BME280;6587;42.728;23.288;2024-01-25T02:34:59;95743.47;;;3.00;68.04
13041;BME280;6587;42.728;23.288;2024-01-25T02:37:26;95758.22;;;2.72;69.74
13041;BME280;6587;42.728;23.288;2024-01-25T02:39:54;95757.72;;;2.49;69.89
13041;BME280;6587;42.728;23.288;2024-01-25T02:42:21;95751.44;;;2.42;70.65
13041;BME280;6587;42.728;23.288;2024-01-25T02:44:48;95730.59;;;2.37;71.34
13041;BME280;6587;42.728;23.288;2024-01-25T02:47:15;95726.41;;;2.44;70.96
13041;BME280;6587;42.728;23.288;2024-01-25T02:49:42;95713.47;;;2.60;70.00
13041;BME280;6587;42.728;23.288;2024-01-25T02:52:09;95717.13;;;2.88;70.04
13041;BME280;6587;42.728;23.288;2024-01-25T02:54:36;95715.81;;;3.14;69.06
13041;BME280;6587;42.728;23.288;2024-01-25T02:57:04;95715.84;;;3.27;68.56
13041;BME280;6587;42.728;23.288;2024-01-25T02:59:31;95722.19;;;3.70;67.26
13041;BME280;6587;42.728;23.288;2024-01-25T03:01:59;95719.06;;;4.01;66.56
13041;BME280;6587;42.728;23.288;2024-01-25T03:04:26;95723.31;;;4.17;65.56
13041;BME280;6587;42.728;23.288;2024-01-25T03:06:52;95715.75;;;4.16;65.92
13041;BME280;6587;42.728;23.288;2024-01-25T03:09:19;95732.66;;;4.51;65.31
13041;BME280;6587;42.728;23.288;2024-01-25T03:11:49;95726.47;;;4.59;65.39
13041;BME280;6587;42.728;23.288;2024-01-25T03:14:17;95723.78;;;4.83;64.51
13041;BME280;6587;42.728;23.288;2024-01-25T03:16:44;95727.06;;;4.92;64.74
13041;BME280;6587;42.728;23.288;2024-01-25T03:19:11;95711.78;;;4.98;65.27
13041;BME280;6587;42.728;23.288;2024-01-25T03:21:38;95708.00;;;5.54;64.69
13041;BME280;6587;42.728;23.288;2024-01-25T03:24:05;95715.53;;;5.98;64.22
13041;BME280;6587;42.728;23.288;2024-01-25T03:26:32;95720.06;;;5.82;62.80
13041;BME280;6587;42.728;23.288;2024-01-25T03:28:59;95710.22;;;5.67;62.62
13041;BME280;6587;42.728;23.288;2024-01-25T03:31:27;95720.56;;;5.29;62.28
13041;BME280;6587;42.728;23.288;2024-01-25T03:33:54;95714.13;;;5.15;63.36
13041;BME280;6587;42.728;23.288;2024-01-25T03:36:21;95712.00;;;5.20;63.50
13041;BME280;6587;42.728;23.288;2024-01-25T03:38:48;95707.88;;;5.07;64.29
13041;BME280;6587;42.728;23.288;2024-01-25T03:41:15;95692.53;;;4.97;64.65
13041;BME280;6587;42.728;23.288;2024-01-25T03:43:42;95686.41;;;4.93;64.76
13041;BME280;6587;42.728;23.288;2024-01-25T03:46:10;95698.91;;;4.96;65.32
13041;BME280;6587;42.728;23.288;2024-01-25T03:48:38;95705.47;;;5.02;65.39
13041;BME280;6587;42.728;23.288;2024-01-25T03:51:05;95701.13;;;4.94;65.52
13041;BME280;6587;42.728;23.288;2024-01-25T03:53:32;95691.22;;;4.91;65.88
13041;BME280;6587;42.728;23.288;2024-01-25T03:55:59;95673.50;;;4.64;66.40
13041;BME280;6587;42.728;23.288;2024-01-25T03:58:26;95697.38;;;4.55;66.40
13041;BME280;6587;42.728;23.288;2024-01-25T04:00:53;95693.47;;;4.77;66.52
13041;BME280;6587;42.728;23.288;2024-01-25T04:03:20;95693.47;;;4.77;66.82
13041;BME280;6587;42.728;23.288;2024-01-25T04:05:49;95675.41;;;4.91;66.39
13041;BME280;6587;42.728;23.288;2024-01-25T04:08:15;95685.75;;;4.84;66.80
13041;BME280;6587;42.728;23.288;2024-01-25T04:10:42;95671.03;;;4.83;66.75
13041;BME280;6587;42.728;23.288;2024-01-25T04:13:09;95671.47;;;4.85;67.01
13041;BME280;6587;42.728;23.288;2024-01-25T04:15:36;95676.19;;;4.92;67.00
13041;BME280;6587;42.728;23.288;2024-01-25T04:18:03;95673.97;;;4.94;66.77
13041;BME280;6587;42.728;23.288;2024-01-25T04:20:30;95678.56;;;4.69;66.01
13041;BME280;6587;42.728;23.288;2024-01-25T04:23:01;95675.75;;;4.50;66.74
13041;BME280;6587;42.728;23.288;2024-01-25T04:25:27;95680.81;;;4.31;67.90
13041;BME280;6587;42.728;23.288;2024-01-25T04:27:54;95681.69;;;4.23;67.45
13041;BME280;6587;42.728;23.288;2024-01-25T04:30:21;95679.84;;;4.23;68.14
13041;BME280;6587;42.728;23.288;2024-01-25T04:32:48;95671.41;;;4.18;68.23
13041;BME280;6587;42.728;23.288;2024-01-25T04:35:15;95676.25;;;4.16;67.57
13041;BME280;6587;42.728;23.288;2024-01-25T04:37:42;95679.88;;;3.99;68.65
13041;BME280;6587;42.728;23.288;2024-01-25T04:40:11;95690.09;;;4.01;68.88
13041;BME280;6587;42.728;23.288;2024-01-25T04:42:37;95692.47;;;3.94;69.65
13041;BME280;6587;42.728;23.288;2024-01-25T04:45:06;95698.09;;;3.80;69.70
13041;BME280;6587;42.728;23.288;2024-01-25T04:47:33;95700.72;;;3.80;69.35
13041;BME280;6587;42.728;23.288;2024-01-25T04:49:59;95695.56;;;3.96;68.86
13041;BME280;6587;42.728;23.288;2024-01-25T04:52:26;95718.41;;;4.04;68.25
13041;BME280;6587;42.728;23.288;2024-01-25T04:54:53;95700.16;;;3.99;69.34
13041;BME280;6587;42.728;23.288;2024-01-25T04:57:21;95710.03;;;4.02;68.45
13041;BME280;6587;42.728;23.288;2024-01-25T04:59:48;95702.81;;;3.99;69.46
13041;BME280;6587;42.728;23.288;2024-01-25T05:02:15;95728.03;;;3.88;69.88
13041;BME280;6587;42.728;23.288;2024-01-25T05:04:42;95719.91;;;4.05;69.51
13041;BME280;6587;42.728;23.288;2024-01-25T05:07:09;95729.59;;;4.13;69.09
13041;BME280;6587;42.728;23.288;2024-01-25T05:09:36;95723.66;;;4.04;68.80
13041;BME280;6587;42.728;23.288;2024-01-25T05:12:03;95738.44;;;3.96;70.00
13041;BME280;6587;42.728;23.288;2024-01-25T05:14:31;95745.16;;;4.06;69.23
13041;BME280;6587;42.728;23.288;2024-01-25T05:16:58;95751.09;;;4.03;68.98
13041;BME280;6587;42.728;23.288;2024-01-25T05:19:25;95757.47;;;4.02;68.76
13041;BME280;6587;42.728;23.288;2024-01-25T05:21:52;95762.31;;;4.12;69.50
13041;BME280;6587;42.728;23.288;2024-01-25T05:24:19;95760.13;;;4.26;67.99
13041;BME280;6587;42.728;23.288;2024-01-25T05:26:45;95761.22;;;4.37;67.15
13041;BME280;6587;42.728;23.288;2024-01-25T05:29:12;95760.31;;;4.45;67.21
13041;BME280;6587;42.728;23.288;2024-01-25T05:31:41;95768.13;;;4.53;67.07
13041;BME280;6587;42.728;23.288;2024-01-25T05:34:07;95767.34;;;4.53;67.30
13041;BME280;6587;42.728;23.288;2024-01-25T05:36:34;95768.72;;;4.74;66.42
13041;BME280;6587;42.728;23.288;2024-01-25T05:39:01;95766.97;;;4.78;65.83
13041;BME280;6587;42.728;23.288;2024-01-25T05:41:32;95776.22;;;4.72;65.41
13041;BME280;6587;42.728;23.288;2024-01-25T05:43:59;95783.34;;;4.72;66.17
13041;BME280;6587;42.728;23.288;2024-01-25T05:46:26;95779.19;;;4.71;66.01
13041;BME280;6587;42.728;23.288;2024-01-25T05:48:54;95791.06;;;4.65;66.17
13041;BME280;6587;42.728;23.288;2024-01-25T05:51:21;95783.50;;;4.63;65.79
13041;BME280;6587;42.728;23.288;2024-01-25T05:53:47;95779.31;;;4.62;66.61
13041;BME280;6587;42.728;23.288;2024-01-25T05:56:14;95777.22;;;4.68;66.14
13041;BME280;6587;42.728;23.288;2024-01-25T05:58:41;95778.78;;;4.57;66.31
13041;BME280;6587;42.728;23.288;2024-01-25T06:01:09;95780.72;;;4.48;66.87
13041;BME280;6587;42.728;23.288;2024-01-25T06:03:35;95791.28;;;4.48;67.58
13041;BME280;6587;42.728;23.288;2024-01-25T06:06:04;95785.38;;;4.51;66.76
13041;BME280;6587;42.728;23.288;2024-01-25T06:08:33;95780.72;;;4.48;67.11
13041;BME280;6587;42.728;23.288;2024-01-25T06:11:00;95778.88;;;4.48;66.79
13041;BME280;6587;42.728;23.288;2024-01-25T06:13:27;95780.44;;;4.49;66.26
13041;BME280;6587;42.728;23.288;2024-01-25T06:15:54;95796.00;;;4.54;66.10
13041;BME280;6587;42.728;23.288;2024-01-25T06:18:20;95803.03;;;4.50;66.27
13041;BME280;6587;42.728;23.288;2024-01-25T06:20:47;95799.41;;;4.43;67.10
13041;BME280;6587;42.728;23.288;2024-01-25T06:23:17;95802.81;;;4.55;66.23
13041;BME280;6587;42.728;23.288;2024-01-25T06:25:43;95799.75;;;4.53;66.45
13041;BME280;6587;42.728;23.288;2024-01-25T06:28:10;95792.81;;;4.61;66.32
13041;BME280;6587;42.728;23.288;2024-01-25T06:30:37;95801.94;;;4.63;66.75
13041;BME280;6587;42.728;23.288;2024-01-25T06:33:04;95808.31;;;4.62;66.86
13041;BME280;6587;42.728;23.288;2024-01-25T06:35:31;95820.72;;;4.62;66.93
13041;BME280;6587;42.728;23.288;2024-01-25T06:37:58;95829.84;;;4.64;66.69
13041;BME280;6587;42.728;23.288;2024-01-25T06:40:26;95815.78;;;4.72;66.87
13041;BME280;6587;42.728;23.288;2024-01-25T06:42:53;95808.97;;;4.83;65.85
13041;BME280;6587;42.728;23.288;2024-01-25T06:45:20;95813.22;;;5.00;66.17
13041;BME280;6587;42.728;23.288;2024-01-25T06:47:47;95806.28;;;4.96;66.33
13041;BME280;6587;42.728;23.288;2024-01-25T06:50:14;95823.97;;;4.95;66.31
13041;BME280;6587;42.728;23.288;2024-01-25T06:52:40;95817.59;;;5.08;65.95
13041;BME280;6587;42.728;23.288;2024-01-25T06:55:08;95828.59;;;5.10;65.60
13041;BME280;6587;42.728;23.288;2024-01-25T06:57:37;95825.50;;;5.08;64.92
13041;BME280;6587;42.728;23.288;2024-01-25T07:00:06;95836.13;;;5.24;65.08
13041;BME280;6587;42.728;23.288;2024-01-25T07:02:33;95820.44;;;5.15;65.07
13041;BME280;6587;42.728;23.288;2024-01-25T07:05:00;95808.34;;;5.14;65.05
13041;BME280;6587;42.728;23.288;2024-01-25T07:07:28;95818.00;;;5.22;64.26
13041;BME280;6587;42.728;23.288;2024-01-25T07:09:57;95821.31;;;5.19;64.74
13041;BME280;6587;42.728;23.288;2024-01-25T07:12:24;95800.81;;;5.28;64.32
13041;BME280;6587;42.728;23.288;2024-01-25T07:14:52;95790.25;;;5.40;64.55
13041;BME280;6587;42.728;23.288;2024-01-25T07:17:19;95785.59;;;5.37;64.04
13041;BME280;6587;42.728;23.288;2024-01-25T07:19:46;95786.28;;;5.34;64.29
13041;BME280;6587;42.728;23.288;2024-01-25T07:22:13;95788.50;;;5.32;64.03
13041;BME280;6587;42.728;23.288;2024-01-25T07:24:40;95785.59;;;5.37;64.03
13041;BME280;6587;42.728;23.288;2024-01-25T07:27:07;95798.56;;;5.42;64.23
13041;BME280;6587;42.728;23.288;2024-01-25T07:29:35;95785.34;;;5.54;63.47
13041;BME280;6587;42.728;23.288;2024-01-25T07:32:04;95797.19;;;5.60;63.11
13041;BME280;6587;42.728;23.288;2024-01-25T07:34:31;95788.94;;;5.62;62.58
13041;BME280;6587;42.728;23.288;2024-01-25T07:36:58;95784.50;;;5.66;63.08
13041;BME280;6587;42.728;23.288;2024-01-25T07:39:24;95789.66;;;5.74;62.76
13041;BME280;6587;42.728;23.288;2024-01-25T07:41:51;95788.28;;;5.80;62.43
13041;BME280;6587;42.728;23.288;2024-01-25T07:44:18;95794.69;;;5.79;61.79
13041;BME280;6587;42.728;23.288;2024-01-25T07:46:45;95794.25;;;5.77;62.67
13041;BME280;6587;42.728;23.288;2024-01-25T07:49:14;95800.72;;;5.92;62.23
13041;BME280;6587;42.728;23.288;2024-01-25T07:51:41;95815.94;;;5.98;62.07
13041;BME280;6587;42.728;23.288;2024-01-25T07:54:08;95820.56;;;6.01;61.64
13041;BME280;6587;42.728;23.288;2024-01-25T07:56:36;95815.22;;;6.13;61.38
13041;BME280;6587;42.728;23.288;2024-01-25T07:59:03;95816.75;;;6.30;60.72
13041;BME280;6587;42.728;23.288;2024-01-25T08:01:29;95824.09;;;6.21;60.92
13041;BME280;6587;42.728;23.288;2024-01-25T08:03:56;95832.59;;;6.14;60.99
13041;BME280;6587;42.728;23.288;2024-01-25T08:06:25;95834.47;;;6.14;60.61
13041;BME280;6587;42.728;23.288;2024-01-25T08:08:52;95823.28;;;6.05;60.82
13041;BME280;6587;42.728;23.288;2024-01-25T08:11:20;95831.41;;;6.12;60.67
13041;BME280;6587;42.728;23.288;2024-01-25T08:13:47;95832.69;;;6.02;60.45
13041;BME280;6587;42.728;23.288;2024-01-25T08:16:14;95832.09;;;6.09;60.60
13041;BME280;6587;42.728;23.288;2024-01-25T08:18:44;95824.66;;;6.14;60.32
13041;BME280;6587;42.728;23.288;2024-01-25T08:21:12;95830.47;;;6.04;60.44
13041;BME280;6587;42.728;23.288;2024-01-25T08:23:40;95827.91;;;6.08;60.64
13041;BME280;6587;42.728;23.288;2024-01-25T08:26:07;95830.47;;;6.04;60.57
13041;BME280;6587;42.728;23.288;2024-01-25T08:28:35;95832.00;;;6.05;60.29
13041;BME280;6587;42.728;23.288;2024-01-25T08:31:02;95810.78;;;6.17;59.86
13041;BME280;6587;42.728;23.288;2024-01-25T08:33:29;95818.03;;;6.20;59.63
13041;BME280;6587;42.728;23.288;2024-01-25T08:35:55;95821.88;;;6.23;59.72
13041;BME280;6587;42.728;23.288;2024-01-25T08:38:23;95822.22;;;6.06;59.96
13041;BME280;6587;42.728;23.288;2024-01-25T08:40:51;95816.94;;;6.21;59.19
13041;BME280;6587;42.728;23.288;2024-01-25T08:43:18;95828.25;;;6.22;59.19
13041;BME280;6587;42.728;23.288;2024-01-25T08:45:45;95828.59;;;6.20;59.08
13041;BME280;6587;42.728;23.288;2024-01-25T08:48:12;95832.09;;;6.24;58.95
13041;BME280;6587;42.728;23.288;2024-01-25T08:50:39;95830.91;;;6.37;58.92
13041;BME280;6587;42.728;23.288;2024-01-25T08:53:06;95828.59;;;6.36;58.15
13041;BME280;6587;42.728;23.288;2024-01-25T08:55:33;95835.78;;;6.35;58.48
13041;BME280;6587;42.728;23.288;2024-01-25T08:58:01;95829.03;;;6.38;58.35
13041;BME280;6587;42.728;23.288;2024-01-25T09:00:28;95843.97;;;6.46;58.49
13041;BME280;6587;42.728;23.288;2024-01-25T09:02:55;95831.78;;;6.42;58.02
13041;BME280;6587;42.728;23.288;2024-01-25T09:05:22;95828.44;;;6.45;57.83
13041;BME280;6587;42.728;23.288;2024-01-25T09:07:50;95835.25;;;6.46;58.44
13041;BME280;6587;42.728;23.288;2024-01-25T09:10:17;95844.81;;;6.34;58.45
13041;BME280;6587;42.728;23.288;2024-01-25T09:12:44;95840.06;;;6.56;58.10
13041;BME280;6587;42.728;23.288;2024-01-25T09:15:13;95839.88;;;6.49;58.38
13041;BME280;6587;42.728;23.288;2024-01-25T09:17:40;95841.22;;;6.43;58.33
13041;BME280;6587;42.728;23.288;2024-01-25T09:20:25;95838.25;;;6.44;58.37
13041;BME280;6587;42.728;23.288;2024-01-25T09:22:52;95836.63;;;6.55;58.20
13041;BME280;6587;42.728;23.288;2024-01-25T09:25:20;95836.63;;;6.71;58.46
13041;BME280;6587;42.728;23.288;2024-01-25T09:27:47;95839.00;;;6.76;57.88
13041;BME280;6587;42.728;23.288;2024-01-25T09:30:16;95833.38;;;6.62;58.31
13041;BME280;6587;42.728;23.288;2024-01-25T09:32:42;95827.91;;;6.55;58.64
13041;BME280;6587;42.728;23.288;2024-01-25T09:35:09;95827.91;;;6.86;57.99
13041;BME280;6587;42.728;23.288;2024-01-25T09:37:36;95823.72;;;6.85;58.32
13041;BME280;6587;42.728;23.288;2024-01-25T09:40:04;95810.91;;;6.87;57.78
13041;BME280;6587;42.728;23.288;2024-01-25T09:42:31;95814.19;;;6.49;59.29
13041;BME280;6587;42.728;23.288;2024-01-25T09:44:58;95809.94;;;6.60;58.28
13041;BME280;6587;42.728;23.288;2024-01-25T09:47:26;95811.03;;;6.75;58.46
13041;BME280;6587;42.728;23.288;2024-01-25T09:49:53;95798.66;;;6.48;59.08
13041;BME280;6587;42.728;23.288;2024-01-25T09:52:22;95787.03;;;6.68;58.57
13041;BME280;6587;42.728;23.288;2024-01-25T09:54:53;95795.66;;;6.65;58.68
13041;BME280;6587;42.728;23.288;2024-01-25T09:57:24;95789.84;;;6.75;58.21
13041;BME280;6587;42.728;23.288;2024-01-25T09:59:52;95786.41;;;6.90;57.92
13041;BME280;6587;42.728;23.288;2024-01-25T10:02:20;95780.41;;;6.93;57.69
13041;BME280;6587;42.728;23.288;2024-01-25T10:04:50;95773.44;;;6.85;58.15
13041;BME280;6587;42.728;23.288;2024-01-25T10:07:35;95767.91;;;6.74;58.50
13041;BME280;6587;42.728;23.288;2024-01-25T10:10:03;95766.75;;;6.91;58.01
13041;BME280;6587;42.728;23.288;2024-01-25T10:12:30;95759.41;;;7.19;57.06
13041;BME280;6587;42.728;23.288;2024-01-25T10:14:57;95750.78;;;7.22;57.32
13041;BME280;6587;42.728;23.288;2024-01-25T10:17:24;95748.78;;;7.34;56.73
13041;BME280;6587;42.728;23.288;2024-01-25T10:19:53;95745.19;;;7.27;56.84
13041;BME280;6587;42.728;23.288;2024-01-25T10:22:20;95752.69;;;7.63;56.64
13041;BME280;6587;42.728;23.288;2024-01-25T10:24:46;95758.72;;;7.22;56.95
13041;BME280;6587;42.728;23.288;2024-01-25T10:27:16;95748.06;;;7.37;56.83
13041;BME280;6587;42.728;23.288;2024-01-25T10:29:43;95754.53;;;7.59;57.02
13041;BME280;6587;42.728;23.288;2024-01-25T10:32:10;95752.84;;;7.70;57.10
13041;BME280;6587;42.728;23.288;2024-01-25T10:34:37;95758.31;;;7.58;57.22
13041;BME280;6587;42.728;23.288;2024-01-25T10:37:06;95754.72;;;7.31;57.90
13041;BME280;6587;42.728;23.288;2024-01-25T10:39:34;95752.16;;;7.16;58.88
13041;BME280;6587;42.728;23.288;2024-01-25T10:42:01;95745.50;;;7.22;58.50
13041;BME280;6587;42.728;23.288;2024-01-25T10:44:28;95737.25;;;7.27;58.09
13041;BME280;6587;42.728;23.288;2024-01-25T10:46:55;95735.09;;;7.32;58.63
13041;BME280;6587;42.728;23.288;2024-01-25T10:49:23;95730.50;;;7.29;58.48
13041;BME280;6587;42.728;23.288;2024-01-25T10:51:52;95724.00;;;7.27;58.13
13041;BME280;6587;42.728;23.288;2024-01-25T10:54:21;95723.81;;;7.35;58.30
13041;BME280;6587;42.728;23.288;2024-01-25T10:56:48;95727.16;;;7.32;59.14
13041;BME280;6587;42.728;23.288;2024-01-25T10:59:15;95723.25;;;7.45;58.58
13041;BME280;6587;42.728;23.288;2024-01-25T11:01:44;95719.81;;;7.64;57.09
13041;BME280;6587;42.728;23.288;2024-01-25T11:04:15;95710.19;;;7.78;56.94
13041;BME280;6587;42.728;23.288;2024-01-25T11:06:44;95701.78;;;7.73;56.25
13041;BME280;6587;42.728;23.288;2024-01-25T11:09:17;95710.63;;;7.58;56.22
13041;BME280;6587;42.728;23.288;2024-01-25T11:11:47;95700.28;;;7.72;56.36
13041;BME280;6587;42.728;23.288;2024-01-25T11:14:14;95688.47;;;7.69;56.30
13041;BME280;6587;42.728;23.288;2024-01-25T11:16:43;95682.88;;;7.74;56.49
13041;BME280;6587;42.728;23.288;2024-01-25T11:19:21;95676.41;;;7.94;55.81
13041;BME280;6587;42.728;23.288;2024-01-25T11:21:50;95671.81;;;7.91;54.86
13041;BME280;6587;42.728;23.288;2024-01-25T11:24:20;95668.00;;;7.89;54.88
13041;BME280;6587;42.728;23.288;2024-01-25T11:26:49;95672.16;;;7.67;54.57
13041;BME280;6587;42.728;23.288;2024-01-25T11:29:17;95665.53;;;7.54;54.93
13041;BME280;6587;42.728;23.288;2024-01-25T11:31:44;95664.50;;;7.40;55.02
13041;BME280;6587;42.728;23.288;2024-01-25T11:34:11;95656.25;;;7.45;55.06
13041;BME280;6587;42.728;23.288;2024-01-25T11:36:38;95665.56;;;7.35;55.01
13041;BME280;6587;42.728;23.288;2024-01-25T11:39:05;95675.25;;;7.28;54.30
13041;BME280;6587;42.728;23.288;2024-01-25T11:41:33;95675.81;;;7.18;54.66
13041;BME280;6587;42.728;23.288;2024-01-25T11:44:02;95663.31;;;7.37;54.33
13041;BME280;6587;42.728;23.288;2024-01-25T11:46:30;95680.06;;;7.22;55.25
13041;BME280;6587;42.728;23.288;2024-01-25T11:48:58;95669.09;;;7.24;54.74
13041;BME280;6587;42.728;23.288;2024-01-25T11:51:25;95687.19;;;7.18;55.74
13041;BME280;6587;42.728;23.288;2024-01-25T11:53:52;95679.84;;;7.12;55.58
13041;BME280;6587;42.728;23.288;2024-01-25T11:56:21;95658.69;;;7.12;55.67
13041;BME280;6587;42.728;23.288;2024-01-25T11:58:50;95666.56;;;7.08;56.16
13041;BME280;6587;42.728;23.288;2024-01-25T12:01:19;95668.16;;;7.13;56.08
13041;BME280;6587;42.728;23.288;2024-01-25T12:03:46;95675.13;;;7.02;56.22
13041;BME280;6587;42.728;23.288;2024-01-25T12:06:13;95671.03;;;7.04;56.76
13041;BME280;6587;42.728;23.288;2024-01-25T12:08:40;95663.72;;;6.98;57.01
13041;BME280;6587;42.728;23.288;2024-01-25T12:11:08;95665.56;;;6.97;56.53
13041;BME280;6587;42.728;23.288;2024-01-25T12:13:36;95657.88;;;6.89;57.12
13041;BME280;6587;42.728;23.288;2024-01-25T12:16:05;95649.50;;;6.87;57.82
13041;BME280;6587;42.728;23.288;2024-01-25T12:18:34;95645.03;;;6.91;57.98
13041;BME280;6587;42.728;23.288;2024-01-25T12:21:03;95633.50;;;7.40;56.88
13041;BME280;6587;42.728;23.288;2024-01-25T12:23:31;95640.66;;;8.34;53.99
13041;BME280;6587;42.728;23.288;2024-01-25T12:26:00;95640.06;;;9.83;49.72
13041;BME280;6587;42.728;23.288;2024-01-25T12:28:27;95636.34;;;11.42;45.44
13041;BME280;6587;42.728;23.288;2024-01-25T12:30:55;95641.72;;;12.50;44.79
13041;BME280;6587;42.728;23.288;2024-01-25T12:33:21;95641.66;;;13.65;41.39
13041;BME280;6587;42.728;23.288;2024-01-25T12:35:50;95638.53;;;13.05;41.54
13041;BME280;6587;42.728;23.288;2024-01-25T12:38:16;95630.13;;;13.10;41.36
13041;BME280;6587;42.728;23.288;2024-01-25T12:40:46;95619.59;;;12.57;41.91
13041;BME280;6587;42.728;23.288;2024-01-25T12:43:13;95616.22;;;11.83;43.13
13041;BME280;6587;42.728;23.288;2024-01-25T12:45:40;95601.38;;;11.96;42.69
13041;BME280;6587;42.728;23.288;2024-01-25T12:48:07;95602.09;;;11.58;43.68
13041;BME280;6587;42.728;23.288;2024-01-25T12:50:34;95587.22;;;11.43;44.33
13041;BME280;6587;42.728;23.288;2024-01-25T12:53:03;95584.59;;;11.46;44.64
13041;BME280;6587;42.728;23.288;2024-01-25T12:55:31;95588.75;;;11.40;44.08
13041;BME280;6587;42.728;23.288;2024-01-25T12:57:58;95576.22;;;11.65;43.08
13041;BME280;6587;42.728;23.288;2024-01-25T13:00:25;95561.38;;;11.99;42.32
13041;BME280;6587;42.728;23.288;2024-01-25T13:02:52;95569.72;;;12.01;42.68
13041;BME280;6587;42.728;23.288;2024-01-25T13:05:21;95569.38;;;11.71;43.16
13041;BME280;6587;42.728;23.288;2024-01-25T13:07:47;95587.44;;;10.71;44.57
13041;BME280;6587;42.728;23.288;2024-01-25T13:10:16;95577.69;;;11.24;44.10